sensor_id;sensor_type;location;lat;lon;timestamp;temperature;humidity
22706;DHT22;11520;51.198;4.468;2023-03-20T00:01:21;7.90;99.90
22706;DHT22;11520;51.198;4.468;2023-03-20T00:03:49;7.80;99.90
22706;DHT22;11520;51.198;4.468;2023-03-20T00:08:42;7.60;99.90
22706;DHT22;11520;51.198;4.468;2023-03-20T00:13:52;7.50;99.90
22706;DHT22;11520;51.198;4.468;2023-03-20T00:16:20;7.50;99.90
22706;DHT22;11520;51.198;4.468;2023-03-20T00:18:46;7.50;99.90
22706;DHT22;11520;51.198;4.468;2023-03-20T00:21:18;7.60;99.90
22706;DHT22;11520;51.198;4.468;2023-03-20T00:23:44;7.60;99.90
22706;DHT22;11520;51.198;4.468;2023-03-20T00:26:15;7.60;99.90
22706;DHT22;11520;51.198;4.468;2023-03-20T00:28:47;7.50;99.90
22706;DHT22;11520;51.198;4.468;2023-03-20T00:33:51;7.40;99.90
22706;DHT22;11520;51.198;4.468;2023-03-20T00:36:17;7.30;99.90
22706;DHT22;11520;51.198;4.468;2023-03-20T00:38:42;7.30;99.90
22706;DHT22;11520;51.198;4.468;2023-03-20T00:47:02;7.30;99.90
22706;DHT22;11520;51.198;4.468;2023-03-20T00:49:30;7.30;99.90
22706;DHT22;11520;51.198;4.468;2023-03-20T00:51:57;7.40;99.90
22706;DHT22;11520;51.198;4.468;2023-03-20T00:54:23;7.30;99.90
22706;DHT22;11520;51.198;4.468;2023-03-20T00:59:31;7.10;99.90
22706;DHT22;11520;51.198;4.468;2023-03-20T01:01:59;7.10;99.90
22706;DHT22;11520;51.198;4.468;2023-03-20T01:04:30;7.10;99.90
22706;DHT22;11520;51.198;4.468;2023-03-20T01:06:58;7.10;99.90
22706;DHT22;11520;51.198;4.468;2023-03-20T01:09:24;7.00;99.90
22706;DHT22;11520;51.198;4.468;2023-03-20T01:11:50;6.90;99.90
22706;DHT22;11520;51.198;4.468;2023-03-20T01:14:16;6.80;99.90
22706;DHT22;11520;51.198;4.468;2023-03-20T01:16:42;6.80;99.90
22706;DHT22;11520;51.198;4.468;2023-03-20T01:19:14;6.90;99.90
22706;DHT22;11520;51.198;4.468;2023-03-20T01:21:41;6.90;99.90
22706;DHT22;11520;51.198;4.468;2023-03-20T01:24:07;7.00;99.90
22706;DHT22;11520;51.198;4.468;2023-03-20T01:26:40;7.00;99.90
22706;DHT22;11520;51.198;4.468;2023-03-20T01:29:23;7.00;99.90
22706;DHT22;11520;51.198;4.468;2023-03-20T01:31:51;6.90;99.90
22706;DHT22;11520;51.198;4.468;2023-03-20T01:34:18;6.90;99.90
22706;DHT22;11520;51.198;4.468;2023-03-20T01:36:49;6.90;99.90
22706;DHT22;11520;51.198;4.468;2023-03-20T01:39:16;7.00;99.90
22706;DHT22;11520;51.198;4.468;2023-03-20T01:41:43;6.90;99.90
22706;DHT22;11520;51.198;4.468;2023-03-20T01:44:20;7.00;99.90
22706;DHT22;11520;51.198;4.468;2023-03-20T01:46:46;7.10;99.90
22706;DHT22;11520;51.198;4.468;2023-03-20T01:51:48;7.20;99.90
22706;DHT22;11520;51.198;4.468;2023-03-20T01:54:29;7.20;99.90
22706;DHT22;11520;51.198;4.468;2023-03-20T01:57:30;7.30;99.90
22706;DHT22;11520;51.198;4.468;2023-03-20T02:00:04;7.30;99.90
22706;DHT22;11520;51.198;4.468;2023-03-20T02:02:31;7.30;99.90
22706;DHT22;11520;51.198;4.468;2023-03-20T02:05:01;7.30;99.90
22706;DHT22;11520;51.198;4.468;2023-03-20T02:07:28;7.30;99.90
22706;DHT22;11520;51.198;4.468;2023-03-20T02:09:55;7.40;99.90
22706;DHT22;11520;51.198;4.468;2023-03-20T02:12:24;7.40;99.90
22706;DHT22;11520;51.198;4.468;2023-03-20T02:14:50;7.30;99.90
22706;DHT22;11520;51.198;4.468;2023-03-20T02:17:17;7.40;99.90
22706;DHT22;11520;51.198;4.468;2023-03-20T02:36:25;7.30;99.90
22706;DHT22;11520;51.198;4.468;2023-03-20T02:41:59;7.40;99.90
22706;DHT22;11520;51.198;4.468;2023-03-20T02:47:10;7.40;99.90
22706;DHT22;11520;51.198;4.468;2023-03-20T02:56:06;7.30;99.90
22706;DHT22;11520;51.198;4.468;2023-03-20T02:58:41;7.20;99.90
22706;DHT22;11520;51.198;4.468;2023-03-20T03:01:21;7.20;99.90
22706;DHT22;11520;51.198;4.468;2023-03-20T03:04:16;7.10;99.90
22706;DHT22;11520;51.198;4.468;2023-03-20T03:06:43;7.20;99.90
22706;DHT22;11520;51.198;4.468;2023-03-20T03:11:48;7.20;99.90
22706;DHT22;11520;51.198;4.468;2023-03-20T03:16:59;7.10;99.90
22706;DHT22;11520;51.198;4.468;2023-03-20T03:19:27;7.20;99.90
22706;DHT22;11520;51.198;4.468;2023-03-20T03:21:54;7.30;99.90
22706;DHT22;11520;51.198;4.468;2023-03-20T03:24:52;7.40;99.90
22706;DHT22;11520;51.198;4.468;2023-03-20T03:27:30;7.50;99.90
22706;DHT22;11520;51.198;4.468;2023-03-20T03:30:09;7.40;99.90
22706;DHT22;11520;51.198;4.468;2023-03-20T03:32:56;7.40;99.90
22706;DHT22;11520;51.198;4.468;2023-03-20T03:35:27;7.30;99.90
22706;DHT22;11520;51.198;4.468;2023-03-20T03:38:01;7.40;99.90
22706;DHT22;11520;51.198;4.468;2023-03-20T03:43:10;7.40;99.90
22706;DHT22;11520;51.198;4.468;2023-03-20T03:45:50;7.30;99.90
22706;DHT22;11520;51.198;4.468;2023-03-20T03:48:20;7.30;99.90
22706;DHT22;11520;51.198;4.468;2023-03-20T03:50:56;7.30;99.90
22706;DHT22;11520;51.198;4.468;2023-03-20T03:53:30;7.40;99.90
22706;DHT22;11520;51.198;4.468;2023-03-20T03:56:03;7.40;99.90
22706;DHT22;11520;51.198;4.468;2023-03-20T03:58:38;7.40;99.90
22706;DHT22;11520;51.198;4.468;2023-03-20T04:01:12;7.40;99.90
22706;DHT22;11520;51.198;4.468;2023-03-20T04:03:41;7.30;99.90
22706;DHT22;11520;51.198;4.468;2023-03-20T04:06:11;7.30;99.90
22706;DHT22;11520;51.198;4.468;2023-03-20T04:08:40;7.40;99.90
22706;DHT22;11520;51.198;4.468;2023-03-20T04:11:07;7.40;99.90
22706;DHT22;11520;51.198;4.468;2023-03-20T04:13:37;7.40;99.90
22706;DHT22;11520;51.198;4.468;2023-03-20T04:16:03;7.40;99.90
22706;DHT22;11520;51.198;4.468;2023-03-20T04:18:28;7.40;99.90
22706;DHT22;11520;51.198;4.468;2023-03-20T04:20:54;7.40;99.90
22706;DHT22;11520;51.198;4.468;2023-03-20T04:23:20;7.40;99.90
22706;DHT22;11520;51.198;4.468;2023-03-20T04:25:46;7.40;99.90
22706;DHT22;11520;51.198;4.468;2023-03-20T04:28:11;7.50;99.90
22706;DHT22;11520;51.198;4.468;2023-03-20T04:30:42;7.50;99.90
22706;DHT22;11520;51.198;4.468;2023-03-20T04:33:12;7.50;99.90
22706;DHT22;11520;51.198;4.468;2023-03-20T04:35:40;7.40;99.90
22706;DHT22;11520;51.198;4.468;2023-03-20T04:38:06;7.40;99.90
22706;DHT22;11520;51.198;4.468;2023-03-20T04:40:31;7.30;99.90
22706;DHT22;11520;51.198;4.468;2023-03-20T04:42:57;7.30;99.90
22706;DHT22;11520;51.198;4.468;2023-03-20T04:45:22;7.30;99.90
22706;DHT22;11520;51.198;4.468;2023-03-20T04:47:48;7.40;99.90
22706;DHT22;11520;51.198;4.468;2023-03-20T04:50:14;7.40;99.90
22706;DHT22;11520;51.198;4.468;2023-03-20T04:52:40;7.40;99.90
22706;DHT22;11520;51.198;4.468;2023-03-20T04:55:06;7.40;99.90
22706;DHT22;11520;51.198;4.468;2023-03-20T04:57:33;7.40;99.90
22706;DHT22;11520;51.198;4.468;2023-03-20T05:00:00;7.40;99.90
22706;DHT22;11520;51.198;4.468;2023-03-20T05:02:26;7.40;99.90
22706;DHT22;11520;51.198;4.468;2023-03-20T05:04:52;7.30;99.90
22706;DHT22;11520;51.198;4.468;2023-03-20T05:07:18;7.30;99.90
22706;DHT22;11520;51.198;4.468;2023-03-20T05:09:44;7.40;99.90
22706;DHT22;11520;51.198;4.468;2023-03-20T05:12:10;7.40;99.90
22706;DHT22;11520;51.198;4.468;2023-03-20T05:14:36;7.50;99.90
22706;DHT22;11520;51.198;4.468;2023-03-20T05:17:03;7.50;99.90
22706;DHT22;11520;51.198;4.468;2023-03-20T05:19:30;7.50;99.90
22706;DHT22;11520;51.198;4.468;2023-03-20T05:21:55;7.60;99.90
22706;DHT22;11520;51.198;4.468;2023-03-20T05:24:21;7.50;99.90
22706;DHT22;11520;51.198;4.468;2023-03-20T05:26:47;7.50;99.90
22706;DHT22;11520;51.198;4.468;2023-03-20T05:29:13;7.50;99.90
22706;DHT22;11520;51.198;4.468;2023-03-20T05:31:39;7.50;99.90
22706;DHT22;11520;51.198;4.468;2023-03-20T05:34:05;7.50;99.90
22706;DHT22;11520;51.198;4.468;2023-03-20T05:36:30;7.50;99.90
22706;DHT22;11520;51.198;4.468;2023-03-20T05:38:56;7.40;99.90
22706;DHT22;11520;51.198;4.468;2023-03-20T05:41:22;7.50;99.90
22706;DHT22;11520;51.198;4.468;2023-03-20T05:43:48;7.40;99.90
22706;DHT22;11520;51.198;4.468;2023-03-20T05:46:14;7.40;99.90
22706;DHT22;11520;51.198;4.468;2023-03-20T05:48:41;7.50;99.90
22706;DHT22;11520;51.198;4.468;2023-03-20T05:51:07;7.50;99.90
22706;DHT22;11520;51.198;4.468;2023-03-20T05:53:32;7.50;99.90
22706;DHT22;11520;51.198;4.468;2023-03-20T05:56:00;7.50;99.90
22706;DHT22;11520;51.198;4.468;2023-03-20T05:58:26;7.50;99.90
22706;DHT22;11520;51.198;4.468;2023-03-20T06:00:52;7.40;99.90
22706;DHT22;11520;51.198;4.468;2023-03-20T06:03:18;7.40;99.90
22706;DHT22;11520;51.198;4.468;2023-03-20T06:05:44;7.40;99.90
22706;DHT22;11520;51.198;4.468;2023-03-20T06:08:10;7.40;99.90
22706;DHT22;11520;51.198;4.468;2023-03-20T06:10:37;7.50;99.90
22706;DHT22;11520;51.198;4.468;2023-03-20T06:13:03;7.40;99.90
22706;DHT22;11520;51.198;4.468;2023-03-20T06:15:29;7.40;99.90
22706;DHT22;11520;51.198;4.468;2023-03-20T06:17:55;7.50;99.90
22706;DHT22;11520;51.198;4.468;2023-03-20T06:20:23;7.50;99.90
22706;DHT22;11520;51.198;4.468;2023-03-20T06:22:48;7.50;99.90
22706;DHT22;11520;51.198;4.468;2023-03-20T06:25:15;7.50;99.90
22706;DHT22;11520;51.198;4.468;2023-03-20T06:27:45;7.60;99.90
22706;DHT22;11520;51.198;4.468;2023-03-20T06:30:11;7.60;99.90
22706;DHT22;11520;51.198;4.468;2023-03-20T06:32:38;7.50;99.90
22706;DHT22;11520;51.198;4.468;2023-03-20T06:35:05;7.60;99.90
22706;DHT22;11520;51.198;4.468;2023-03-20T06:37:33;7.50;99.90
22706;DHT22;11520;51.198;4.468;2023-03-20T06:39:59;7.60;99.90
22706;DHT22;11520;51.198;4.468;2023-03-20T06:42:25;7.60;99.90
22706;DHT22;11520;51.198;4.468;2023-03-20T06:44:50;7.70;99.90
22706;DHT22;11520;51.198;4.468;2023-03-20T06:47:16;7.70;99.90
22706;DHT22;11520;51.198;4.468;2023-03-20T06:49:44;7.70;99.90
22706;DHT22;11520;51.198;4.468;2023-03-20T06:52:16;7.70;99.90
22706;DHT22;11520;51.198;4.468;2023-03-20T06:54:42;7.80;99.90
22706;DHT22;11520;51.198;4.468;2023-03-20T06:57:09;7.80;99.90
22706;DHT22;11520;51.198;4.468;2023-03-20T06:59:35;7.90;99.90
22706;DHT22;11520;51.198;4.468;2023-03-20T07:02:02;8.00;99.90
22706;DHT22;11520;51.198;4.468;2023-03-20T07:04:29;8.00;99.90
22706;DHT22;11520;51.198;4.468;2023-03-20T07:06:56;8.00;99.90
22706;DHT22;11520;51.198;4.468;2023-03-20T07:09:23;8.00;99.90
22706;DHT22;11520;51.198;4.468;2023-03-20T07:11:49;8.00;99.90
22706;DHT22;11520;51.198;4.468;2023-03-20T07:14:15;8.00;99.90
22706;DHT22;11520;51.198;4.468;2023-03-20T07:16:42;8.00;99.90
22706;DHT22;11520;51.198;4.468;2023-03-20T07:19:07;8.00;99.90
22706;DHT22;11520;51.198;4.468;2023-03-20T07:21:34;8.00;99.90
22706;DHT22;11520;51.198;4.468;2023-03-20T07:24:00;8.10;99.90
22706;DHT22;11520;51.198;4.468;2023-03-20T07:26:26;8.20;99.90
22706;DHT22;11520;51.198;4.468;2023-03-20T07:28:52;8.20;99.90
22706;DHT22;11520;51.198;4.468;2023-03-20T07:31:28;8.30;99.90
22706;DHT22;11520;51.198;4.468;2023-03-20T07:33:54;8.30;99.90
22706;DHT22;11520;51.198;4.468;2023-03-20T07:36:20;8.50;99.90
22706;DHT22;11520;51.198;4.468;2023-03-20T07:38:46;8.50;99.90
22706;DHT22;11520;51.198;4.468;2023-03-20T07:41:12;8.50;99.90
22706;DHT22;11520;51.198;4.468;2023-03-20T07:43:37;8.60;99.90
22706;DHT22;11520;51.198;4.468;2023-03-20T07:46:06;8.80;99.90
22706;DHT22;11520;51.198;4.468;2023-03-20T07:48:33;9.00;99.90
22706;DHT22;11520;51.198;4.468;2023-03-20T07:50:59;9.00;99.90
22706;DHT22;11520;51.198;4.468;2023-03-20T07:53:26;9.00;99.90
22706;DHT22;11520;51.198;4.468;2023-03-20T07:55:53;9.00;99.90
22706;DHT22;11520;51.198;4.468;2023-03-20T07:58:19;9.00;99.90
22706;DHT22;11520;51.198;4.468;2023-03-20T08:00:46;8.90;99.90
22706;DHT22;11520;51.198;4.468;2023-03-20T08:03:11;8.80;99.90
22706;DHT22;11520;51.198;4.468;2023-03-20T08:05:38;8.80;99.90
22706;DHT22;11520;51.198;4.468;2023-03-20T08:08:05;8.90;99.90
22706;DHT22;11520;51.198;4.468;2023-03-20T08:10:31;8.80;99.90
22706;DHT22;11520;51.198;4.468;2023-03-20T08:12:57;8.80;99.90
22706;DHT22;11520;51.198;4.468;2023-03-20T08:15:22;8.80;99.90
22706;DHT22;11520;51.198;4.468;2023-03-20T08:17:48;8.80;99.90
22706;DHT22;11520;51.198;4.468;2023-03-20T08:20:15;8.90;99.90
22706;DHT22;11520;51.198;4.468;2023-03-20T08:22:42;8.80;99.90
22706;DHT22;11520;51.198;4.468;2023-03-20T08:25:08;8.80;99.90
22706;DHT22;11520;51.198;4.468;2023-03-20T08:27:35;8.70;99.90
22706;DHT22;11520;51.198;4.468;2023-03-20T08:30:01;8.80;99.90
22706;DHT22;11520;51.198;4.468;2023-03-20T08:32:27;9.00;99.90
22706;DHT22;11520;51.198;4.468;2023-03-20T08:34:54;9.00;99.90
22706;DHT22;11520;51.198;4.468;2023-03-20T08:37:21;9.00;99.90
22706;DHT22;11520;51.198;4.468;2023-03-20T08:39:47;9.10;99.90
22706;DHT22;11520;51.198;4.468;2023-03-20T08:42:13;9.20;99.90
22706;DHT22;11520;51.198;4.468;2023-03-20T08:44:40;9.20;99.90
22706;DHT22;11520;51.198;4.468;2023-03-20T08:47:07;9.20;99.90
22706;DHT22;11520;51.198;4.468;2023-03-20T08:49:34;9.20;99.90
22706;DHT22;11520;51.198;4.468;2023-03-20T08:52:01;9.10;99.90
22706;DHT22;11520;51.198;4.468;2023-03-20T08:54:28;9.00;99.90
22706;DHT22;11520;51.198;4.468;2023-03-20T08:56:54;9.00;99.90
22706;DHT22;11520;51.198;4.468;2023-03-20T08:59:21;9.10;99.90
22706;DHT22;11520;51.198;4.468;2023-03-20T09:01:47;9.20;99.90
22706;DHT22;11520;51.198;4.468;2023-03-20T09:04:13;9.30;99.90
22706;DHT22;11520;51.198;4.468;2023-03-20T09:06:39;9.20;99.90
22706;DHT22;11520;51.198;4.468;2023-03-20T09:09:05;9.20;99.90
22706;DHT22;11520;51.198;4.468;2023-03-20T09:11:32;9.30;99.90
22706;DHT22;11520;51.198;4.468;2023-03-20T09:13:58;9.20;99.90
22706;DHT22;11520;51.198;4.468;2023-03-20T09:16:25;9.30;99.90
22706;DHT22;11520;51.198;4.468;2023-03-20T09:18:51;9.30;99.90
22706;DHT22;11520;51.198;4.468;2023-03-20T09:21:17;9.40;99.90
22706;DHT22;11520;51.198;4.468;2023-03-20T09:23:43;9.50;99.90
22706;DHT22;11520;51.198;4.468;2023-03-20T09:26:09;9.70;99.90
22706;DHT22;11520;51.198;4.468;2023-03-20T09:28:34;9.90;99.90
22706;DHT22;11520;51.198;4.468;2023-03-20T09:31:00;9.90;99.90
22706;DHT22;11520;51.198;4.468;2023-03-20T09:33:26;9.90;99.90
22706;DHT22;11520;51.198;4.468;2023-03-20T09:35:52;9.90;99.90
22706;DHT22;11520;51.198;4.468;2023-03-20T09:38:18;9.80;99.90
22706;DHT22;11520;51.198;4.468;2023-03-20T09:40:50;9.90;99.90
22706;DHT22;11520;51.198;4.468;2023-03-20T09:48:53;10.20;99.90
22706;DHT22;11520;51.198;4.468;2023-03-20T09:51:50;10.20;99.90
22706;DHT22;11520;51.198;4.468;2023-03-20T09:54:29;10.20;99.90
22706;DHT22;11520;51.198;4.468;2023-03-20T09:56:58;10.30;99.90
22706;DHT22;11520;51.198;4.468;2023-03-20T09:59:26;10.40;99.90
22706;DHT22;11520;51.198;4.468;2023-03-20T10:04:22;10.60;99.90
22706;DHT22;11520;51.198;4.468;2023-03-20T10:06:50;10.80;99.90
22706;DHT22;11520;51.198;4.468;2023-03-20T10:11:55;11.20;99.90
22706;DHT22;11520;51.198;4.468;2023-03-20T10:25:41;11.00;99.90
22706;DHT22;11520;51.198;4.468;2023-03-20T10:27:47;11.10;99.90
22706;DHT22;11520;51.198;4.468;2023-03-20T10:30:57;11.00;99.90
22706;DHT22;11520;51.198;4.468;2023-03-20T10:39:21;10.90;99.90
22706;DHT22;11520;51.198;4.468;2023-03-20T10:41:52;10.80;99.90
22706;DHT22;11520;51.198;4.468;2023-03-20T10:44:47;10.70;99.90
22706;DHT22;11520;51.198;4.468;2023-03-20T10:47:17;10.60;99.90
22706;DHT22;11520;51.198;4.468;2023-03-20T10:49:49;10.70;99.90
22706;DHT22;11520;51.198;4.468;2023-03-20T10:52:20;10.70;99.90
22706;DHT22;11520;51.198;4.468;2023-03-20T10:55:02;10.80;99.90
22706;DHT22;11520;51.198;4.468;2023-03-20T10:57:33;10.80;99.90
22706;DHT22;11520;51.198;4.468;2023-03-20T11:00:01;10.90;99.90
22706;DHT22;11520;51.198;4.468;2023-03-20T11:02:30;11.00;99.90
22706;DHT22;11520;51.198;4.468;2023-03-20T11:04:59;11.30;99.90
22706;DHT22;11520;51.198;4.468;2023-03-20T11:07:33;11.50;99.90
22706;DHT22;11520;51.198;4.468;2023-03-20T11:12:34;12.00;99.90
22706;DHT22;11520;51.198;4.468;2023-03-20T11:15:03;12.00;99.90
22706;DHT22;11520;51.198;4.468;2023-03-20T11:17:36;11.80;99.90
22706;DHT22;11520;51.198;4.468;2023-03-20T11:20:04;11.90;99.90
22706;DHT22;11520;51.198;4.468;2023-03-20T11:22:30;12.00;99.90
22706;DHT22;11520;51.198;4.468;2023-03-20T11:24:59;12.10;99.90
22706;DHT22;11520;51.198;4.468;2023-03-20T11:27:30;12.30;99.90
22706;DHT22;11520;51.198;4.468;2023-03-20T11:29:59;12.30;99.90
22706;DHT22;11520;51.198;4.468;2023-03-20T11:32:34;12.50;99.90
22706;DHT22;11520;51.198;4.468;2023-03-20T11:35:29;12.40;99.90
22706;DHT22;11520;51.198;4.468;2023-03-20T11:38:15;12.50;99.90
22706;DHT22;11520;51.198;4.468;2023-03-20T11:40:41;12.70;99.90
22706;DHT22;11520;51.198;4.468;2023-03-20T11:43:13;13.10;99.90
22706;DHT22;11520;51.198;4.468;2023-03-20T11:45:45;13.00;99.90
22706;DHT22;11520;51.198;4.468;2023-03-20T11:48:21;13.00;99.90
22706;DHT22;11520;51.198;4.468;2023-03-20T11:51:01;12.90;99.90
22706;DHT22;11520;51.198;4.468;2023-03-20T11:53:30;13.00;99.90
22706;DHT22;11520;51.198;4.468;2023-03-20T11:58:32;13.10;99.90
22706;DHT22;11520;51.198;4.468;2023-03-20T12:01:00;13.40;99.90
22706;DHT22;11520;51.198;4.468;2023-03-20T12:05:59;13.70;99.90
22706;DHT22;11520;51.198;4.468;2023-03-20T12:08:26;13.70;99.90
22706;DHT22;11520;51.198;4.468;2023-03-20T12:11:00;13.70;99.90
22706;DHT22;11520;51.198;4.468;2023-03-20T12:13:32;13.60;99.90
22706;DHT22;11520;51.198;4.468;2023-03-20T12:16:20;13.40;99.90
22706;DHT22;11520;51.198;4.468;2023-03-20T12:19:16;13.50;99.90
22706;DHT22;11520;51.198;4.468;2023-03-20T12:21:58;13.80;99.90
22706;DHT22;11520;51.198;4.468;2023-03-20T12:24:52;13.80;99.90
22706;DHT22;11520;51.198;4.468;2023-03-20T12:27:39;13.70;99.90
22706;DHT22;11520;51.198;4.468;2023-03-20T12:30:21;13.60;99.90
22706;DHT22;11520;51.198;4.468;2023-03-20T12:35:29;13.20;99.90
22706;DHT22;11520;51.198;4.468;2023-03-20T12:37:55;13.10;99.90
22706;DHT22;11520;51.198;4.468;2023-03-20T12:40:45;13.00;99.90
22706;DHT22;11520;51.198;4.468;2023-03-20T12:43:26;13.00;99.90
22706;DHT22;11520;51.198;4.468;2023-03-20T12:46:42;13.10;99.90
22706;DHT22;11520;51.198;4.468;2023-03-20T12:48:54;13.00;99.90
22706;DHT22;11520;51.198;4.468;2023-03-20T12:54:09;12.80;99.90
22706;DHT22;11520;51.198;4.468;2023-03-20T13:02:48;12.40;99.90
22706;DHT22;11520;51.198;4.468;2023-03-20T13:05:51;12.50;99.90
22706;DHT22;11520;51.198;4.468;2023-03-20T13:11:22;12.40;99.90
22706;DHT22;11520;51.198;4.468;2023-03-20T13:14:00;12.30;99.90
22706;DHT22;11520;51.198;4.468;2023-03-20T13:16:50;12.30;99.90
22706;DHT22;11520;51.198;4.468;2023-03-20T13:19:37;12.30;99.90
22706;DHT22;11520;51.198;4.468;2023-03-20T13:22:36;12.40;99.90
22706;DHT22;11520;51.198;4.468;2023-03-20T13:28:03;12.50;99.90
22706;DHT22;11520;51.198;4.468;2023-03-20T13:30:44;12.30;99.90
22706;DHT22;11520;51.198;4.468;2023-03-20T13:33:37;12.40;99.90
22706;DHT22;11520;51.198;4.468;2023-03-20T13:36:15;12.40;99.90
22706;DHT22;11520;51.198;4.468;2023-03-20T13:38:51;12.50;99.90
22706;DHT22;11520;51.198;4.468;2023-03-20T13:41:17;12.50;99.90
22706;DHT22;11520;51.198;4.468;2023-03-20T13:43:50;12.50;99.90
22706;DHT22;11520;51.198;4.468;2023-03-20T13:46:35;12.50;99.90
22706;DHT22;11520;51.198;4.468;2023-03-20T13:52:36;12.50;99.90
22706;DHT22;11520;51.198;4.468;2023-03-20T14:05:59;12.30;99.90
22706;DHT22;11520;51.198;4.468;2023-03-20T14:14:07;12.40;99.90
22706;DHT22;11520;51.198;4.468;2023-03-20T14:16:37;12.50;99.90
22706;DHT22;11520;51.198;4.468;2023-03-20T14:21:45;12.60;99.90
22706;DHT22;11520;51.198;4.468;2023-03-20T14:24:14;12.60;99.90
22706;DHT22;11520;51.198;4.468;2023-03-20T14:26:40;12.50;99.90
22706;DHT22;11520;51.198;4.468;2023-03-20T14:31:39;12.60;99.90
22706;DHT22;11520;51.198;4.468;2023-03-20T14:39:20;12.50;99.90
22706;DHT22;11520;51.198;4.468;2023-03-20T14:53:23;12.80;99.90
22706;DHT22;11520;51.198;4.468;2023-03-20T15:04:07;12.40;99.90
22706;DHT22;11520;51.198;4.468;2023-03-20T15:06:34;12.40;99.90
22706;DHT22;11520;51.198;4.468;2023-03-20T15:09:09;12.40;99.90
22706;DHT22;11520;51.198;4.468;2023-03-20T15:11:36;12.50;99.90
22706;DHT22;11520;51.198;4.468;2023-03-20T15:14:05;12.50;99.90
22706;DHT22;11520;51.198;4.468;2023-03-20T15:16:34;12.40;99.90
22706;DHT22;11520;51.198;4.468;2023-03-20T15:19:00;12.40;99.90
22706;DHT22;11520;51.198;4.468;2023-03-20T15:21:32;12.40;99.90
22706;DHT22;11520;51.198;4.468;2023-03-20T15:23:58;12.30;99.90
22706;DHT22;11520;51.198;4.468;2023-03-20T15:26:25;12.40;99.90
22706;DHT22;11520;51.198;4.468;2023-03-20T15:29:02;12.30;99.90
22706;DHT22;11520;51.198;4.468;2023-03-20T15:31:37;12.20;99.90
22706;DHT22;11520;51.198;4.468;2023-03-20T15:34:08;12.20;99.90
22706;DHT22;11520;51.198;4.468;2023-03-20T15:36:39;12.10;99.90
22706;DHT22;11520;51.198;4.468;2023-03-20T15:41:37;12.20;99.90
22706;DHT22;11520;51.198;4.468;2023-03-20T15:49:23;12.30;99.90
22706;DHT22;11520;51.198;4.468;2023-03-20T15:51:50;12.30;99.90
22706;DHT22;11520;51.198;4.468;2023-03-20T15:54:18;12.30;99.90
22706;DHT22;11520;51.198;4.468;2023-03-20T15:56:47;12.40;99.90
22706;DHT22;11520;51.198;4.468;2023-03-20T15:59:17;12.40;99.90
22706;DHT22;11520;51.198;4.468;2023-03-20T16:01:44;12.50;99.90
22706;DHT22;11520;51.198;4.468;2023-03-20T16:04:16;12.40;99.90
22706;DHT22;11520;51.198;4.468;2023-03-20T16:06:58;12.50;99.90
22706;DHT22;11520;51.198;4.468;2023-03-20T16:09:27;12.50;99.90
22706;DHT22;11520;51.198;4.468;2023-03-20T16:12:01;12.50;99.90
22706;DHT22;11520;51.198;4.468;2023-03-20T16:14:32;12.60;99.90
22706;DHT22;11520;51.198;4.468;2023-03-20T16:16:59;12.70;99.90
22706;DHT22;11520;51.198;4.468;2023-03-20T16:19:27;12.70;99.90
22706;DHT22;11520;51.198;4.468;2023-03-20T16:22:18;12.70;99.90
22706;DHT22;11520;51.198;4.468;2023-03-20T16:24:45;12.60;99.90
22706;DHT22;11520;51.198;4.468;2023-03-20T16:27:39;12.50;99.90
22706;DHT22;11520;51.198;4.468;2023-03-20T16:30:06;12.60;99.90
22706;DHT22;11520;51.198;4.468;2023-03-20T16:32:38;12.50;99.90
22706;DHT22;11520;51.198;4.468;2023-03-20T16:35:20;12.60;99.90
22706;DHT22;11520;51.198;4.468;2023-03-20T16:37:59;12.50;99.90
22706;DHT22;11520;51.198;4.468;2023-03-20T16:40:35;12.70;99.90
22706;DHT22;11520;51.198;4.468;2023-03-20T16:43:15;12.60;99.90
22706;DHT22;11520;51.198;4.468;2023-03-20T16:45:48;12.50;99.90
22706;DHT22;11520;51.198;4.468;2023-03-20T16:50:44;12.30;99.90
22706;DHT22;11520;51.198;4.468;2023-03-20T16:53:16;12.30;99.90
22706;DHT22;11520;51.198;4.468;2023-03-20T16:55:49;12.30;99.90
22706;DHT22;11520;51.198;4.468;2023-03-20T16:58:28;12.30;99.90
22706;DHT22;11520;51.198;4.468;2023-03-20T17:06:07;12.30;99.90
22706;DHT22;11520;51.198;4.468;2023-03-20T17:08:39;12.30;99.90
22706;DHT22;11520;51.198;4.468;2023-03-20T17:11:12;12.30;99.90
22706;DHT22;11520;51.198;4.468;2023-03-20T17:13:40;12.40;99.90
22706;DHT22;11520;51.198;4.468;2023-03-20T17:16:12;12.40;99.90
22706;DHT22;11520;51.198;4.468;2023-03-20T17:18:39;12.40;99.90
22706;DHT22;11520;51.198;4.468;2023-03-20T17:21:05;12.30;99.90
22706;DHT22;11520;51.198;4.468;2023-03-20T17:23:31;12.30;99.90
22706;DHT22;11520;51.198;4.468;2023-03-20T17:25:57;12.30;99.90
22706;DHT22;11520;51.198;4.468;2023-03-20T17:28:33;12.30;99.90
22706;DHT22;11520;51.198;4.468;2023-03-20T17:31:00;12.40;99.90
22706;DHT22;11520;51.198;4.468;2023-03-20T17:33:30;12.30;99.90
22706;DHT22;11520;51.198;4.468;2023-03-20T17:35:58;12.30;99.90
22706;DHT22;11520;51.198;4.468;2023-03-20T17:38:24;12.30;99.90
22706;DHT22;11520;51.198;4.468;2023-03-20T17:40:50;12.20;99.90
22706;DHT22;11520;51.198;4.468;2023-03-20T17:43:17;12.20;99.90
22706;DHT22;11520;51.198;4.468;2023-03-20T17:45:43;12.30;99.90
22706;DHT22;11520;51.198;4.468;2023-03-20T17:48:18;12.30;99.90
22706;DHT22;11520;51.198;4.468;2023-03-20T17:50:46;12.30;99.90
22706;DHT22;11520;51.198;4.468;2023-03-20T17:53:22;12.30;99.90
22706;DHT22;11520;51.198;4.468;2023-03-20T17:55:54;12.20;99.90
22706;DHT22;11520;51.198;4.468;2023-03-20T17:58:22;12.20;99.90
22706;DHT22;11520;51.198;4.468;2023-03-20T18:00:50;12.10;99.90
22706;DHT22;11520;51.198;4.468;2023-03-20T18:03:16;12.10;99.90
22706;DHT22;11520;51.198;4.468;2023-03-20T18:05:49;12.10;99.90
22706;DHT22;11520;51.198;4.468;2023-03-20T18:08:18;12.10;99.90
22706;DHT22;11520;51.198;4.468;2023-03-20T18:10:51;12.00;99.90
22706;DHT22;11520;51.198;4.468;2023-03-20T18:13:19;12.00;99.90
22706;DHT22;11520;51.198;4.468;2023-03-20T18:15:46;12.00;99.90
22706;DHT22;11520;51.198;4.468;2023-03-20T18:18:14;11.90;99.90
22706;DHT22;11520;51.198;4.468;2023-03-20T18:20:42;11.90;99.90
22706;DHT22;11520;51.198;4.468;2023-03-20T18:23:08;11.90;99.90
22706;DHT22;11520;51.198;4.468;2023-03-20T18:25:34;11.90;99.90
22706;DHT22;11520;51.198;4.468;2023-03-20T18:28:02;11.90;99.90
22706;DHT22;11520;51.198;4.468;2023-03-20T18:30:32;11.90;99.90
22706;DHT22;11520;51.198;4.468;2023-03-20T18:33:00;11.90;99.90
22706;DHT22;11520;51.198;4.468;2023-03-20T18:35:27;11.80;99.90
22706;DHT22;11520;51.198;4.468;2023-03-20T18:37:53;11.80;99.90
22706;DHT22;11520;51.198;4.468;2023-03-20T18:40:29;11.80;99.90
22706;DHT22;11520;51.198;4.468;2023-03-20T18:42:56;11.80;99.90
22706;DHT22;11520;51.198;4.468;2023-03-20T18:45:25;11.90;99.90
22706;DHT22;11520;51.198;4.468;2023-03-20T18:47:53;11.90;99.90
22706;DHT22;11520;51.198;4.468;2023-03-20T18:50:29;11.90;99.90
22706;DHT22;11520;51.198;4.468;2023-03-20T18:52:56;11.90;99.90